sensor_id;sensor_type;location;lat;lon;timestamp;pressure;altitude;pressure_sealevel;temperature;humidity
33795;BME280;51430;52.242;21.118;2023-03-14T00:02:01;98756.75;;;10.58;72.93
33795;BME280;51430;52.242;21.118;2023-03-14T00:04:48;98759.17;;;10.49;73.26
33795;BME280;51430;52.242;21.118;2023-03-14T00:07:38;98755.35;;;10.41;73.62
33795;BME280;51430;52.242;21.118;2023-03-14T00:10:25;98757.52;;;10.31;74.01
33795;BME280;51430;52.242;21.118;2023-03-14T00:13:14;98753.41;;;10.22;74.37
33795;BME280;51430;52.242;21.118;2023-03-14T00:16:09;98758.58;;;10.14;74.66
33795;BME280;51430;52.242;21.118;2023-03-14T00:18:58;98750.46;;;10.03;75.36
33795;BME280;51430;52.242;21.118;2023-03-14T00:21:46;98740.79;;;10.00;75.17
33795;BME280;51430;52.242;21.118;2023-03-14T00:24:32;98738.69;;;9.97;75.15
33795;BME280;51430;52.242;21.118;2023-03-14T00:27:19;98741.57;;;9.98;75.31
33795;BME280;51430;52.242;21.118;2023-03-14T00:30:06;98736.60;;;9.95;75.33
33795;BME280;51430;52.242;21.118;2023-03-14T00:32:54;98732.02;;;9.87;75.65
33795;BME280;51430;52.242;21.118;2023-03-14T00:35:40;98732.98;;;9.77;75.92
33795;BME280;51430;52.242;21.118;2023-03-14T00:38:27;98726.84;;;9.72;76.22
33795;BME280;51430;52.242;21.118;2023-03-14T00:41:17;98725.38;;;9.68;76.22
33795;BME280;51430;52.242;21.118;2023-03-14T00:44:06;98721.45;;;9.62;76.19
33795;BME280;51430;52.242;21.118;2023-03-14T00:46:54;98709.85;;;9.63;76.04
33795;BME280;51430;52.242;21.118;2023-03-14T00:49:40;98702.27;;;9.59;76.30
33795;BME280;51430;52.242;21.118;2023-03-14T00:52:29;98696.65;;;9.49;76.53
33795;BME280;51430;52.242;21.118;2023-03-14T00:55:16;98689.13;;;9.44;76.56
33795;BME280;51430;52.242;21.118;2023-03-14T00:58:03;98684.40;;;9.44;76.57
33795;BME280;51430;52.242;21.118;2023-03-14T01:00:49;98671.84;;;9.39;76.29
33795;BME280;51430;52.242;21.118;2023-03-14T01:03:36;98674.88;;;9.33;76.74
33795;BME280;51430;52.242;21.118;2023-03-14T01:06:25;98670.94;;;9.31;76.76
33795;BME280;51430;52.242;21.118;2023-03-14T01:09:12;98664.17;;;9.29;76.54
33795;BME280;51430;52.242;21.118;2023-03-14T01:11:58;98661.56;;;9.25;76.32
33795;BME280;51430;52.242;21.118;2023-03-14T01:14:45;98655.48;;;9.25;75.99
33795;BME280;51430;52.242;21.118;2023-03-14T01:17:32;98653.48;;;9.28;75.56
33795;BME280;51430;52.242;21.118;2023-03-14T01:20:18;98645.59;;;9.32;75.33
33795;BME280;51430;52.242;21.118;2023-03-14T01:23:05;98656.44;;;9.32;75.18
33795;BME280;51430;52.242;21.118;2023-03-14T01:25:51;98663.06;;;9.36;74.68
33795;BME280;51430;52.242;21.118;2023-03-14T01:28:38;98654.67;;;9.39;74.50
33795;BME280;51430;52.242;21.118;2023-03-14T01:31:25;98644.48;;;9.35;74.27
33795;BME280;51430;52.242;21.118;2023-03-14T01:34:12;98652.05;;;9.37;74.18
33795;BME280;51430;52.242;21.118;2023-03-14T01:36:58;98652.64;;;9.33;74.20
33795;BME280;51430;52.242;21.118;2023-03-14T01:39:46;98653.48;;;9.35;73.88
33795;BME280;51430;52.242;21.118;2023-03-14T01:42:33;98649.53;;;9.47;72.99
33795;BME280;51430;52.242;21.118;2023-03-14T01:48:50;98655.58;;;9.44;72.76
33795;BME280;51430;52.242;21.118;2023-03-14T01:51:52;98657.48;;;9.49;72.18
33795;BME280;51430;52.242;21.118;2023-03-14T01:54:46;98643.67;;;9.51;71.98
33795;BME280;51430;52.242;21.118;2023-03-14T01:57:43;98651.64;;;9.57;71.63
33795;BME280;51430;52.242;21.118;2023-03-14T02:00:31;98649.83;;;9.56;71.44
33795;BME280;51430;52.242;21.118;2023-03-14T02:03:20;98646.67;;;9.55;71.42
33795;BME280;51430;52.242;21.118;2023-03-14T02:06:08;98643.92;;;9.51;71.59
33795;BME280;51430;52.242;21.118;2023-03-14T02:08:59;98636.86;;;9.41;71.79
33795;BME280;51430;52.242;21.118;2023-03-14T02:11:46;98635.83;;;9.34;72.04
33795;BME280;51430;52.242;21.118;2023-03-14T02:14:34;98625.91;;;9.27;72.18
33795;BME280;51430;52.242;21.118;2023-03-14T02:17:22;98625.86;;;9.21;72.35
33795;BME280;51430;52.242;21.118;2023-03-14T02:20:14;98616.69;;;9.20;72.18
33795;BME280;51430;52.242;21.118;2023-03-14T02:23:05;98614.99;;;9.16;72.22
33795;BME280;51430;52.242;21.118;2023-03-14T02:25:58;98628.07;;;9.14;72.48
33795;BME280;51430;52.242;21.118;2023-03-14T02:28:47;98621.00;;;9.07;72.51
33795;BME280;51430;52.242;21.118;2023-03-14T02:31:35;98606.30;;;8.94;72.83
33795;BME280;51430;52.242;21.118;2023-03-14T02:34:22;98599.19;;;8.83;73.33
33795;BME280;51430;52.242;21.118;2023-03-14T02:37:11;98592.98;;;8.81;73.27
33795;BME280;51430;52.242;21.118;2023-03-14T02:39:58;98586.27;;;8.80;73.24
33795;BME280;51430;52.242;21.118;2023-03-14T02:42:45;98584.73;;;8.69;73.59
33795;BME280;51430;52.242;21.118;2023-03-14T02:45:41;98574.13;;;8.71;73.81
33795;BME280;51430;52.242;21.118;2023-03-14T02:48:36;98564.90;;;8.59;73.90
33795;BME280;51430;52.242;21.118;2023-03-14T02:51:27;98554.77;;;8.65;73.63
33795;BME280;51430;52.242;21.118;2023-03-14T02:54:15;98558.66;;;8.52;74.18
33795;BME280;51430;52.242;21.118;2023-03-14T02:57:03;98570.05;;;8.47;74.28
33795;BME280;51430;52.242;21.118;2023-03-14T02:59:49;98573.38;;;8.45;74.38
33795;BME280;51430;52.242;21.118;2023-03-14T03:02:36;98564.53;;;8.36;74.70
33795;BME280;51430;52.242;21.118;2023-03-14T03:05:22;98566.08;;;8.25;74.97
33795;BME280;51430;52.242;21.118;2023-03-14T03:08:10;98560.66;;;8.16;75.17
33795;BME280;51430;52.242;21.118;2023-03-14T03:10:57;98553.63;;;8.08;75.60
33795;BME280;51430;52.242;21.118;2023-03-14T03:13:43;98554.66;;;8.05;75.73
33795;BME280;51430;52.242;21.118;2023-03-14T03:16:30;98553.42;;;8.03;75.86
33795;BME280;51430;52.242;21.118;2023-03-14T03:19:16;98557.03;;;7.92;76.23
33795;BME280;51430;52.242;21.118;2023-03-14T03:22:04;98559.81;;;7.88;76.41
33795;BME280;51430;52.242;21.118;2023-03-14T03:24:50;98557.31;;;7.87;76.41
33795;BME280;51430;52.242;21.118;2023-03-14T03:27:37;98557.32;;;7.72;76.89
33795;BME280;51430;52.242;21.118;2023-03-14T03:30:24;98548.50;;;7.63;77.11
33795;BME280;51430;52.242;21.118;2023-03-14T03:33:12;98542.65;;;7.55;77.49
33795;BME280;51430;52.242;21.118;2023-03-14T03:35:58;98533.55;;;7.45;77.99
33795;BME280;51430;52.242;21.118;2023-03-14T03:38:45;98536.19;;;7.43;77.98
33795;BME280;51430;52.242;21.118;2023-03-14T03:41:32;98544.59;;;7.36;78.10
33795;BME280;51430;52.242;21.118;2023-03-14T03:44:19;98551.55;;;7.34;78.23
33795;BME280;51430;52.242;21.118;2023-03-14T03:47:05;98542.08;;;7.28;78.28
33795;BME280;51430;52.242;21.118;2023-03-14T03:49:52;98553.34;;;7.22;78.51
33795;BME280;51430;52.242;21.118;2023-03-14T03:52:39;98542.69;;;7.21;78.59
33795;BME280;51430;52.242;21.118;2023-03-14T03:55:25;98537.58;;;7.16;78.70
33795;BME280;51430;52.242;21.118;2023-03-14T03:58:14;98537.88;;;7.17;78.67
33795;BME280;51430;52.242;21.118;2023-03-14T04:01:01;98533.05;;;7.11;78.77
33795;BME280;51430;52.242;21.118;2023-03-14T04:03:47;98535.81;;;7.11;78.89
33795;BME280;51430;52.242;21.118;2023-03-14T04:06:34;98541.85;;;7.11;78.67
33795;BME280;51430;52.242;21.118;2023-03-14T04:09:21;98542.87;;;7.13;78.68
33795;BME280;51430;52.242;21.118;2023-03-14T04:12:07;98550.23;;;7.09;78.85
33795;BME280;51430;52.242;21.118;2023-03-14T04:14:54;98544.08;;;7.02;79.00
33795;BME280;51430;52.242;21.118;2023-03-14T04:17:40;98545.51;;;7.07;78.86
33795;BME280;51430;52.242;21.118;2023-03-14T04:20:27;98546.26;;;7.08;78.64
33795;BME280;51430;52.242;21.118;2023-03-14T04:23:14;98551.01;;;7.00;78.79
33795;BME280;51430;52.242;21.118;2023-03-14T04:26:00;98549.02;;;6.99;78.87
33795;BME280;51430;52.242;21.118;2023-03-14T04:28:47;98548.61;;;7.00;78.67
33795;BME280;51430;52.242;21.118;2023-03-14T04:31:33;98537.42;;;7.01;78.57
33795;BME280;51430;52.242;21.118;2023-03-14T04:34:20;98530.49;;;6.97;78.66
33795;BME280;51430;52.242;21.118;2023-03-14T04:37:06;98540.29;;;6.91;78.95
33795;BME280;51430;52.242;21.118;2023-03-14T04:39:53;98545.73;;;6.92;78.88
33795;BME280;51430;52.242;21.118;2023-03-14T04:42:39;98544.27;;;6.94;78.70
33795;BME280;51430;52.242;21.118;2023-03-14T04:45:26;98544.83;;;6.87;79.05
33795;BME280;51430;52.242;21.118;2023-03-14T04:48:13;98532.08;;;6.86;79.09
33795;BME280;51430;52.242;21.118;2023-03-14T04:50:59;98536.17;;;6.96;78.84
33795;BME280;51430;52.242;21.118;2023-03-14T04:53:46;98526.51;;;6.99;78.65
33795;BME280;51430;52.242;21.118;2023-03-14T04:56:33;98516.09;;;7.02;78.32
33795;BME280;51430;52.242;21.118;2023-03-14T04:59:19;98515.50;;;7.08;78.18
33795;BME280;51430;52.242;21.118;2023-03-14T05:02:06;98506.18;;;7.11;77.95
33795;BME280;51430;52.242;21.118;2023-03-14T05:04:53;98494.89;;;7.19;77.42
33795;BME280;51430;52.242;21.118;2023-03-14T05:07:39;98496.29;;;7.24;77.13
33795;BME280;51430;52.242;21.118;2023-03-14T05:10:26;98497.35;;;7.26;77.13
33795;BME280;51430;52.242;21.118;2023-03-14T05:13:12;98487.73;;;7.36;76.70
33795;BME280;51430;52.242;21.118;2023-03-14T05:16:07;98491.95;;;7.41;76.40
33795;BME280;51430;52.242;21.118;2023-03-14T05:18:54;98481.48;;;7.38;76.61
33795;BME280;51430;52.242;21.118;2023-03-14T05:21:40;98473.42;;;7.48;76.28
33795;BME280;51430;52.242;21.118;2023-03-14T05:24:26;98458.70;;;7.55;76.00
33795;BME280;51430;52.242;21.118;2023-03-14T05:27:19;98465.96;;;7.59;75.71
33795;BME280;51430;52.242;21.118;2023-03-14T05:30:06;98462.17;;;7.79;75.11
33795;BME280;51430;52.242;21.118;2023-03-14T05:32:53;98468.48;;;7.98;74.33
33795;BME280;51430;52.242;21.118;2023-03-14T05:35:39;98479.62;;;7.96;74.32
33795;BME280;51430;52.242;21.118;2023-03-14T05:38:26;98474.95;;;7.94;74.36
33795;BME280;51430;52.242;21.118;2023-03-14T05:41:15;98471.31;;;7.81;74.54
33795;BME280;51430;52.242;21.118;2023-03-14T05:44:02;98463.43;;;7.84;74.63
33795;BME280;51430;52.242;21.118;2023-03-14T05:46:49;98459.55;;;7.85;74.44
33795;BME280;51430;52.242;21.118;2023-03-14T05:49:37;98442.74;;;7.88;74.45
33795;BME280;51430;52.242;21.118;2023-03-14T05:52:24;98436.63;;;8.14;73.51
33795;BME280;51430;52.242;21.118;2023-03-14T05:55:12;98428.70;;;8.28;72.73
33795;BME280;51430;52.242;21.118;2023-03-14T05:57:59;98435.14;;;8.50;72.18
33795;BME280;51430;52.242;21.118;2023-03-14T06:00:47;98428.88;;;8.64;71.80
33795;BME280;51430;52.242;21.118;2023-03-14T06:03:34;98426.73;;;9.03;70.29
33795;BME280;51430;52.242;21.118;2023-03-14T06:06:21;98421.75;;;9.63;68.37
33795;BME280;51430;52.242;21.118;2023-03-14T06:09:08;98412.13;;;9.99;66.97
33795;BME280;51430;52.242;21.118;2023-03-14T06:11:55;98409.86;;;10.27;65.95
33795;BME280;51430;52.242;21.118;2023-03-14T06:14:41;98417.64;;;10.67;64.77
33795;BME280;51430;52.242;21.118;2023-03-14T06:17:28;98413.59;;;11.06;63.44
33795;BME280;51430;52.242;21.118;2023-03-14T06:20:15;98402.93;;;11.23;62.87
33795;BME280;51430;52.242;21.118;2023-03-14T06:23:02;98399.64;;;11.50;59.34
33795;BME280;51430;52.242;21.118;2023-03-14T06:25:49;98404.20;;;10.98;59.67
33795;BME280;51430;52.242;21.118;2023-03-14T06:28:36;98408.79;;;10.30;61.81
33795;BME280;51430;52.242;21.118;2023-03-14T06:31:22;98406.42;;;10.52;61.35
33795;BME280;51430;52.242;21.118;2023-03-14T06:34:09;98408.82;;;10.17;62.33
33795;BME280;51430;52.242;21.118;2023-03-14T06:36:57;98411.28;;;9.82;63.37
33795;BME280;51430;52.242;21.118;2023-03-14T06:39:44;98402.40;;;9.62;64.16
33795;BME280;51430;52.242;21.118;2023-03-14T06:42:31;98408.46;;;9.59;64.43
33795;BME280;51430;52.242;21.118;2023-03-14T06:45:19;98413.16;;;9.85;63.44
33795;BME280;51430;52.242;21.118;2023-03-14T06:48:06;98409.34;;;10.05;62.69
33795;BME280;51430;52.242;21.118;2023-03-14T06:50:55;98399.86;;;9.99;62.97
33795;BME280;51430;52.242;21.118;2023-03-14T06:53:42;98393.20;;;10.14;62.59
33795;BME280;51430;52.242;21.118;2023-03-14T06:56:29;98394.10;;;10.16;62.54
33795;BME280;51430;52.242;21.118;2023-03-14T06:59:15;98386.70;;;10.20;62.38
33795;BME280;51430;52.242;21.118;2023-03-14T07:02:02;98391.16;;;10.67;61.43
33795;BME280;51430;52.242;21.118;2023-03-14T07:04:49;98396.57;;;11.12;59.92
33795;BME280;51430;52.242;21.118;2023-03-14T07:07:36;98391.25;;;11.33;59.57
33795;BME280;51430;52.242;21.118;2023-03-14T07:10:23;98389.39;;;11.82;58.24
33795;BME280;51430;52.242;21.118;2023-03-14T07:13:09;98389.12;;;12.14;57.69
33795;BME280;51430;52.242;21.118;2023-03-14T07:15:56;98388.01;;;12.55;56.60
33795;BME280;51430;52.242;21.118;2023-03-14T07:18:43;98388.72;;;12.40;56.72
33795;BME280;51430;52.242;21.118;2023-03-14T07:21:30;98408.92;;;12.27;57.05
33795;BME280;51430;52.242;21.118;2023-03-14T07:24:18;98417.80;;;11.98;57.80
33795;BME280;51430;52.242;21.118;2023-03-14T07:27:04;98420.64;;;11.70;58.50
33795;BME280;51430;52.242;21.118;2023-03-14T07:29:52;98417.33;;;11.56;59.09
33795;BME280;51430;52.242;21.118;2023-03-14T07:32:39;98407.69;;;11.51;59.71
33795;BME280;51430;52.242;21.118;2023-03-14T07:35:26;98411.98;;;11.64;59.48
33795;BME280;51430;52.242;21.118;2023-03-14T07:38:13;98411.89;;;11.72;59.48
33795;BME280;51430;52.242;21.118;2023-03-14T07:41:00;98411.63;;;12.38;58.01
33795;BME280;51430;52.242;21.118;2023-03-14T07:43:48;98412.62;;;13.12;55.92
33795;BME280;51430;52.242;21.118;2023-03-14T07:46:54;98421.79;;;13.05;55.73
33795;BME280;51430;52.242;21.118;2023-03-14T07:49:41;98418.55;;;13.03;55.90
33795;BME280;51430;52.242;21.118;2023-03-14T07:52:31;98418.21;;;13.54;54.88
33795;BME280;51430;52.242;21.118;2023-03-14T07:55:43;98409.55;;;14.03;53.56
33795;BME280;51430;52.242;21.118;2023-03-14T07:59:17;98410.70;;;14.64;52.10
33795;BME280;51430;52.242;21.118;2023-03-14T08:13:45;98414.13;;;15.45;48.86
33795;BME280;51430;52.242;21.118;2023-03-14T08:16:53;98418.63;;;16.17;47.10
33795;BME280;51430;52.242;21.118;2023-03-14T08:20:27;98417.26;;;16.09;46.83
33795;BME280;51430;52.242;21.118;2023-03-14T08:24:25;98426.31;;;15.54;47.48
33795;BME280;51430;52.242;21.118;2023-03-14T08:28:21;98420.87;;;15.07;48.93
33795;BME280;51430;52.242;21.118;2023-03-14T08:32:18;98418.29;;;15.14;48.81
33795;BME280;51430;52.242;21.118;2023-03-14T08:35:08;98414.39;;;15.30;48.66
33795;BME280;51430;52.242;21.118;2023-03-14T08:37:55;98425.54;;;15.40;48.13
33795;BME280;51430;52.242;21.118;2023-03-14T08:40:42;98426.52;;;15.65;47.87
33795;BME280;51430;52.242;21.118;2023-03-14T08:43:30;98428.10;;;16.21;46.73
33795;BME280;51430;52.242;21.118;2023-03-14T08:46:17;98431.89;;;17.04;45.12
33795;BME280;51430;52.242;21.118;2023-03-14T08:49:03;98435.12;;;16.89;44.74
33795;BME280;51430;52.242;21.118;2023-03-14T08:51:50;98430.77;;;16.50;45.71
33795;BME280;51430;52.242;21.118;2023-03-14T08:54:37;98422.01;;;16.39;45.96
33795;BME280;51430;52.242;21.118;2023-03-14T08:57:25;98417.52;;;16.13;46.50
33795;BME280;51430;52.242;21.118;2023-03-14T09:00:13;98422.84;;;16.23;46.62
33795;BME280;51430;52.242;21.118;2023-03-14T09:03:01;98416.89;;;16.20;46.84
33795;BME280;51430;52.242;21.118;2023-03-14T09:05:49;98413.84;;;17.12;45.34
33795;BME280;51430;52.242;21.118;2023-03-14T09:08:36;98407.52;;;18.26;43.44
33795;BME280;51430;52.242;21.118;2023-03-14T09:11:25;98408.75;;;18.31;41.79
33795;BME280;51430;52.242;21.118;2023-03-14T09:14:11;98417.61;;;17.25;43.75
33795;BME280;51430;52.242;21.118;2023-03-14T09:16:58;98407.74;;;16.68;45.34
33795;BME280;51430;52.242;21.118;2023-03-14T09:19:46;98398.93;;;16.86;45.53
33795;BME280;51430;52.242;21.118;2023-03-14T09:22:32;98396.06;;;17.30;44.71
33795;BME280;51430;52.242;21.118;2023-03-14T09:25:20;98393.87;;;18.38;42.41
33795;BME280;51430;52.242;21.118;2023-03-14T09:28:06;98406.48;;;18.75;41.41
33795;BME280;51430;52.242;21.118;2023-03-14T09:30:54;98393.27;;;17.92;42.73
33795;BME280;51430;52.242;21.118;2023-03-14T09:33:42;98385.08;;;18.40;42.34
33795;BME280;51430;52.242;21.118;2023-03-14T09:40:49;98377.48;;;18.86;41.82
33795;BME280;51430;52.242;21.118;2023-03-14T09:43:37;98368.75;;;19.52;40.34
33795;BME280;51430;52.242;21.118;2023-03-14T09:46:24;98372.04;;;19.78;40.18
33795;BME280;51430;52.242;21.118;2023-03-14T09:49:15;98361.28;;;20.31;39.07
33795;BME280;51430;52.242;21.118;2023-03-14T09:52:11;98358.00;;;20.62;38.56
33795;BME280;51430;52.242;21.118;2023-03-14T09:59:14;98345.45;;;20.55;38.33
33795;BME280;51430;52.242;21.118;2023-03-14T10:02:02;98340.90;;;20.13;39.16
33795;BME280;51430;52.242;21.118;2023-03-14T10:09:24;98332.50;;;21.21;37.51
33795;BME280;51430;52.242;21.118;2023-03-14T10:12:13;98332.35;;;21.68;36.49
33795;BME280;51430;52.242;21.118;2023-03-14T10:19:15;98350.41;;;19.20;39.80
33795;BME280;51430;52.242;21.118;2023-03-14T10:22:05;98335.50;;;17.91;42.50
33795;BME280;51430;52.242;21.118;2023-03-14T10:24:55;98334.16;;;17.64;43.27
33795;BME280;51430;52.242;21.118;2023-03-14T10:27:44;98350.84;;;17.14;44.26
33795;BME280;51430;52.242;21.118;2023-03-14T10:30:44;98331.18;;;16.81;45.40
33795;BME280;51430;52.242;21.118;2023-03-14T10:33:34;98332.30;;;17.00;45.52
33795;BME280;51430;52.242;21.118;2023-03-14T10:36:23;98323.36;;;17.06;45.34
33795;BME280;51430;52.242;21.118;2023-03-14T10:42:30;98321.48;;;17.41;44.86
33795;BME280;51430;52.242;21.118;2023-03-14T10:48:23;98310.23;;;17.82;44.21
33795;BME280;51430;52.242;21.118;2023-03-14T10:54:13;98313.80;;;17.69;44.09
33795;BME280;51430;52.242;21.118;2023-03-14T10:57:01;98312.88;;;17.32;44.87
33795;BME280;51430;52.242;21.118;2023-03-14T10:59:50;98302.27;;;17.74;44.59
33795;BME280;51430;52.242;21.118;2023-03-14T11:08:49;98305.11;;;17.21;45.70
33795;BME280;51430;52.242;21.118;2023-03-14T11:11:41;98312.31;;;16.99;46.11
33795;BME280;51430;52.242;21.118;2023-03-14T11:14:45;98312.23;;;17.05;46.32
33795;BME280;51430;52.242;21.118;2023-03-14T11:21:35;98314.75;;;17.35;45.82
33795;BME280;51430;52.242;21.118;2023-03-14T11:30:25;98311.57;;;17.26;45.76
33795;BME280;51430;52.242;21.118;2023-03-14T11:34:10;98322.35;;;17.15;46.29
33795;BME280;51430;52.242;21.118;2023-03-14T11:36:46;98326.04;;;17.03;46.29
33795;BME280;51430;52.242;21.118;2023-03-14T11:40:17;98318.71;;;16.89;46.45
33795;BME280;51430;52.242;21.118;2023-03-14T11:43:33;98312.62;;;16.86;46.40
33795;BME280;51430;52.242;21.118;2023-03-14T11:46:37;98305.10;;;16.75;46.62
33795;BME280;51430;52.242;21.118;2023-03-14T11:53:03;98292.11;;;16.75;46.87
33795;BME280;51430;52.242;21.118;2023-03-14T11:55:51;98293.91;;;16.80;46.81
33795;BME280;51430;52.242;21.118;2023-03-14T11:58:45;98297.27;;;16.70;47.05
33795;BME280;51430;52.242;21.118;2023-03-14T12:01:44;98304.41;;;16.59;47.37
33795;BME280;51430;52.242;21.118;2023-03-14T12:10:53;98320.95;;;16.35;47.63
33795;BME280;51430;52.242;21.118;2023-03-14T12:13:46;98317.23;;;16.24;48.06
33795;BME280;51430;52.242;21.118;2023-03-14T12:16:37;98310.80;;;16.70;47.65
33795;BME280;51430;52.242;21.118;2023-03-14T12:19:29;98301.20;;;18.32;44.69
33795;BME280;51430;52.242;21.118;2023-03-14T12:22:24;98307.71;;;19.31;42.12
33795;BME280;51430;52.242;21.118;2023-03-14T12:30:45;98321.00;;;17.39;46.03
33795;BME280;51430;52.242;21.118;2023-03-14T12:33:33;98311.39;;;17.38;46.41
33795;BME280;51430;52.242;21.118;2023-03-14T12:39:45;98309.51;;;17.02;47.43
33795;BME280;51430;52.242;21.118;2023-03-14T12:51:59;98309.82;;;16.23;49.93
33795;BME280;51430;52.242;21.118;2023-03-14T12:54:54;98306.73;;;16.30;49.85
33795;BME280;51430;52.242;21.118;2023-03-14T12:58:09;98313.39;;;16.01;50.53
33795;BME280;51430;52.242;21.118;2023-03-14T13:01:03;98326.54;;;15.90;50.97
33795;BME280;51430;52.242;21.118;2023-03-14T13:03:52;98327.25;;;15.79;51.65
33795;BME280;51430;52.242;21.118;2023-03-14T13:12:23;98341.71;;;15.36;53.53
33795;BME280;51430;52.242;21.118;2023-03-14T13:15:23;98347.90;;;15.23;55.23
33795;BME280;51430;52.242;21.118;2023-03-14T13:18:36;98355.00;;;14.83;57.98
33795;BME280;51430;52.242;21.118;2023-03-14T13:21:26;98345.66;;;14.35;61.67
33795;BME280;51430;52.242;21.118;2023-03-14T13:24:23;98347.17;;;13.98;63.50
33795;BME280;51430;52.242;21.118;2023-03-14T13:27:18;98345.77;;;13.71;65.25
33795;BME280;51430;52.242;21.118;2023-03-14T13:30:22;98352.74;;;13.53;66.83
33795;BME280;51430;52.242;21.118;2023-03-14T13:33:18;98361.05;;;13.36;68.45
33795;BME280;51430;52.242;21.118;2023-03-14T13:36:05;98354.55;;;13.19;69.27
33795;BME280;51430;52.242;21.118;2023-03-14T13:39:00;98355.38;;;13.06;69.28
33795;BME280;51430;52.242;21.118;2023-03-14T13:41:48;98355.71;;;12.88;69.07
33795;BME280;51430;52.242;21.118;2023-03-14T13:44:39;98351.52;;;12.83;70.05
33795;BME280;51430;52.242;21.118;2023-03-14T13:47:26;98351.65;;;12.80;71.05
33795;BME280;51430;52.242;21.118;2023-03-14T13:50:17;98348.32;;;12.80;70.55
33795;BME280;51430;52.242;21.118;2023-03-14T13:53:05;98343.54;;;12.59;71.91
33795;BME280;51430;52.242;21.118;2023-03-14T13:55:52;98343.65;;;12.60;73.32
33795;BME280;51430;52.242;21.118;2023-03-14T13:58:40;98346.61;;;12.63;73.65
33795;BME280;51430;52.242;21.118;2023-03-14T14:01:35;98350.77;;;12.52;72.42
33795;BME280;51430;52.242;21.118;2023-03-14T14:04:25;98349.30;;;12.48;72.81
33795;BME280;51430;52.242;21.118;2023-03-14T14:07:16;98352.03;;;12.50;73.04
33795;BME280;51430;52.242;21.118;2023-03-14T14:10:09;98349.48;;;12.50;73.55
33795;BME280;51430;52.242;21.118;2023-03-14T14:13:00;98344.98;;;12.52;73.24
33795;BME280;51430;52.242;21.118;2023-03-14T14:15:50;98342.36;;;12.48;73.40
33795;BME280;51430;52.242;21.118;2023-03-14T14:18:39;98337.16;;;12.53;74.50
33795;BME280;51430;52.242;21.118;2023-03-14T14:21:26;98338.21;;;12.61;74.84
33795;BME280;51430;52.242;21.118;2023-03-14T14:24:14;98335.69;;;12.57;75.65
33795;BME280;51430;52.242;21.118;2023-03-14T14:27:09;98335.84;;;12.42;76.05
33795;BME280;51430;52.242;21.118;2023-03-14T14:30:27;98328.73;;;12.31;77.18
33795;BME280;51430;52.242;21.118;2023-03-14T14:33:20;98323.84;;;12.17;78.04
33795;BME280;51430;52.242;21.118;2023-03-14T14:36:18;98317.24;;;12.02;79.95
33795;BME280;51430;52.242;21.118;2023-03-14T14:39:32;98314.31;;;11.81;81.48
33795;BME280;51430;52.242;21.118;2023-03-14T14:42:21;98314.28;;;11.56;83.40
33795;BME280;51430;52.242;21.118;2023-03-14T14:45:14;98310.97;;;11.53;84.10
33795;BME280;51430;52.242;21.118;2023-03-14T14:48:09;98308.78;;;11.52;85.03
33795;BME280;51430;52.242;21.118;2023-03-14T14:51:03;98295.02;;;11.43;84.68
33795;BME280;51430;52.242;21.118;2023-03-14T14:54:10;98290.63;;;11.42;85.60
33795;BME280;51430;52.242;21.118;2023-03-14T14:57:02;98296.95;;;11.49;85.75
33795;BME280;51430;52.242;21.118;2023-03-14T14:59:51;98303.34;;;11.57;84.93
33795;BME280;51430;52.242;21.118;2023-03-14T15:02:44;98299.93;;;11.63;83.78
33795;BME280;51430;52.242;21.118;2023-03-14T15:05:32;98298.77;;;11.68;82.92
33795;BME280;51430;52.242;21.118;2023-03-14T15:08:23;98301.41;;;11.70;83.13
33795;BME280;51430;52.242;21.118;2023-03-14T15:11:17;98303.86;;;11.70;83.74
33795;BME280;51430;52.242;21.118;2023-03-14T15:14:04;98316.34;;;11.69;84.39
33795;BME280;51430;52.242;21.118;2023-03-14T15:16:50;98310.29;;;11.75;84.11
33795;BME280;51430;52.242;21.118;2023-03-14T15:19:37;98312.59;;;11.78;82.60
33795;BME280;51430;52.242;21.118;2023-03-14T15:22:25;98324.95;;;11.87;82.80
33795;BME280;51430;52.242;21.118;2023-03-14T15:25:12;98359.95;;;11.87;81.98
33795;BME280;51430;52.242;21.118;2023-03-14T15:28:21;98369.17;;;11.79;82.10
33795;BME280;51430;52.242;21.118;2023-03-14T15:31:10;98357.06;;;11.75;82.09
33795;BME280;51430;52.242;21.118;2023-03-14T15:33:57;98350.91;;;11.74;82.20
33795;BME280;51430;52.242;21.118;2023-03-14T15:36:44;98341.77;;;11.74;81.88
33795;BME280;51430;52.242;21.118;2023-03-14T15:39:31;98320.64;;;11.79;81.25
33795;BME280;51430;52.242;21.118;2023-03-14T15:42:18;98316.20;;;11.61;81.88
33795;BME280;51430;52.242;21.118;2023-03-14T15:45:06;98324.96;;;11.59;81.67
33795;BME280;51430;52.242;21.118;2023-03-14T15:47:53;98327.45;;;11.52;82.31
33795;BME280;51430;52.242;21.118;2023-03-14T15:50:40;98330.95;;;11.55;82.34
33795;BME280;51430;52.242;21.118;2023-03-14T15:53:27;98327.06;;;11.53;82.60
33795;BME280;51430;52.242;21.118;2023-03-14T15:56:16;98333.46;;;11.49;82.70
33795;BME280;51430;52.242;21.118;2023-03-14T15:59:12;98326.65;;;11.42;82.61
33795;BME280;51430;52.242;21.118;2023-03-14T16:01:59;98327.44;;;11.34;82.92
33795;BME280;51430;52.242;21.118;2023-03-14T16:04:46;98334.42;;;11.38;83.00
33795;BME280;51430;52.242;21.118;2023-03-14T16:07:33;98350.26;;;11.30;83.37
33795;BME280;51430;52.242;21.118;2023-03-14T16:10:19;98361.71;;;11.27;83.25
33795;BME280;51430;52.242;21.118;2023-03-14T16:13:06;98366.25;;;11.32;83.35
33795;BME280;51430;52.242;21.118;2023-03-14T16:15:55;98368.54;;;11.30;82.90
33795;BME280;51430;52.242;21.118;2023-03-14T16:18:42;98361.31;;;11.31;82.68
33795;BME280;51430;52.242;21.118;2023-03-14T16:21:29;98361.77;;;11.31;82.78
33795;BME280;51430;52.242;21.118;2023-03-14T16:24:16;98358.91;;;11.29;83.10
33795;BME280;51430;52.242;21.118;2023-03-14T16:27:06;98358.39;;;11.30;83.10
33795;BME280;51430;52.242;21.118;2023-03-14T16:30:36;98358.73;;;11.15;84.35